Weather at Cadiz Airstrip

Public forecast

Using degrees Fahrenheit for public forecast. Weather courtesy of forecast.io.

Closest aviation weather report (METAR) to Cadiz Airstrip

Closest report is Twentynine Palms Strategic Expeditionary Landing Field, 34.4 nm (63.8 km) WSW. Retrieved 2021/06/23 01:56 UTC (4 minutes ago):

KNXP 230156Z AUTO 32004KT 10SM FEW055 SCT110 33/06 A2993 RMK AO2 PK WND 23027/0057 RAB42E56 SLP094 P0000 T03330061

Closest aviation forecast (TAF) to Cadiz Airstrip

Forecast is more than 12 hours old.

Closest forecast is Twentynine Palms Strategic Expeditionary Landing Field, 34.4 nm (63.8 km) WSW. Retrieved 2013/03/21 03:00 UTC (8 years ago):

TAF COR KNXP 210300Z 2103/2203 30020G29KT 9999 SCT120 BKN200 520009 521809 522709 QNH2987INS BECMG 2116/2118 31010KT SCT200 521809 522709 QNH2990INS TX15/2114Z TN25/2122Z COR 0756